sensor_id;sensor_type;location;lat;lon;timestamp;P1;durP1;ratioP1;P2;durP2;ratioP2
36137;SDS011;22194;50.046;21.954;2022-09-09T00:04:24;53.10;;;35.60;;
36137;SDS011;22194;50.046;21.954;2022-09-09T00:09:39;54.40;;;36.10;;
36137;SDS011;22194;50.046;21.954;2022-09-09T00:12:18;56.90;;;38.00;;
36137;SDS011;22194;50.046;21.954;2022-09-09T00:15:07;57.00;;;37.10;;
36137;SDS011;22194;50.046;21.954;2022-09-09T00:17:52;54.70;;;38.40;;
36137;SDS011;22194;50.046;21.954;2022-09-09T00:22:56;54.60;;;37.50;;
36137;SDS011;22194;50.046;21.954;2022-09-09T00:28:32;53.90;;;37.40;;
36137;SDS011;22194;50.046;21.954;2022-09-09T00:31:14;55.10;;;36.80;;
36137;SDS011;22194;50.046;21.954;2022-09-09T00:33:48;55.50;;;36.90;;
36137;SDS011;22194;50.046;21.954;2022-09-09T00:36:19;58.60;;;39.50;;
36137;SDS011;22194;50.046;21.954;2022-09-09T00:38:52;56.10;;;37.20;;
36137;SDS011;22194;50.046;21.954;2022-09-09T00:44:37;55.70;;;39.30;;
36137;SDS011;22194;50.046;21.954;2022-09-09T00:50:13;56.90;;;38.70;;
36137;SDS011;22194;50.046;21.954;2022-09-09T00:55:39;54.60;;;38.00;;
36137;SDS011;22194;50.046;21.954;2022-09-09T00:58:15;54.30;;;38.70;;
36137;SDS011;22194;50.046;21.954;2022-09-09T01:00:44;56.70;;;39.30;;
36137;SDS011;22194;50.046;21.954;2022-09-09T01:03:19;55.90;;;39.60;;
36137;SDS011;22194;50.046;21.954;2022-09-09T01:06:29;56.80;;;39.10;;
36137;SDS011;22194;50.046;21.954;2022-09-09T01:14:47;58.60;;;40.20;;
36137;SDS011;22194;50.046;21.954;2022-09-09T01:17:33;66.40;;;42.50;;
36137;SDS011;22194;50.046;21.954;2022-09-09T01:20:19;58.90;;;40.30;;
36137;SDS011;22194;50.046;21.954;2022-09-09T01:23:02;57.10;;;38.90;;
36137;SDS011;22194;50.046;21.954;2022-09-09T01:28:47;60.60;;;40.90;;
36137;SDS011;22194;50.046;21.954;2022-09-09T01:31:18;58.00;;;40.30;;
36137;SDS011;22194;50.046;21.954;2022-09-09T01:33:50;62.40;;;42.30;;
36137;SDS011;22194;50.046;21.954;2022-09-09T01:36:24;54.50;;;40.20;;
36137;SDS011;22194;50.046;21.954;2022-09-09T01:39:02;55.40;;;38.20;;
36137;SDS011;22194;50.046;21.954;2022-09-09T01:41:31;60.70;;;41.60;;
36137;SDS011;22194;50.046;21.954;2022-09-09T01:43:59;58.40;;;40.20;;
36137;SDS011;22194;50.046;21.954;2022-09-09T01:46:28;54.70;;;38.90;;
36137;SDS011;22194;50.046;21.954;2022-09-09T01:48:57;59.70;;;40.70;;
36137;SDS011;22194;50.046;21.954;2022-09-09T01:51:30;59.10;;;41.60;;
36137;SDS011;22194;50.046;21.954;2022-09-09T01:53:58;59.90;;;39.40;;
36137;SDS011;22194;50.046;21.954;2022-09-09T02:02:07;55.60;;;38.90;;
36137;SDS011;22194;50.046;21.954;2022-09-09T02:04:55;56.50;;;40.00;;
36137;SDS011;22194;50.046;21.954;2022-09-09T02:07:34;54.50;;;38.20;;
36137;SDS011;22194;50.046;21.954;2022-09-09T02:13:15;54.90;;;37.10;;
36137;SDS011;22194;50.046;21.954;2022-09-09T02:15:47;51.70;;;36.50;;
36137;SDS011;22194;50.046;21.954;2022-09-09T02:19:25;55.70;;;37.30;;
36137;SDS011;22194;50.046;21.954;2022-09-09T02:21:53;50.30;;;34.50;;
36137;SDS011;22194;50.046;21.954;2022-09-09T02:24:25;48.40;;;34.30;;
36137;SDS011;22194;50.046;21.954;2022-09-09T02:26:55;48.20;;;34.60;;
36137;SDS011;22194;50.046;21.954;2022-09-09T02:29:36;51.00;;;34.00;;
36137;SDS011;22194;50.046;21.954;2022-09-09T02:32:11;49.20;;;34.30;;
36137;SDS011;22194;50.046;21.954;2022-09-09T02:34:44;49.60;;;33.20;;
36137;SDS011;22194;50.046;21.954;2022-09-09T02:37:17;47.40;;;33.50;;
36137;SDS011;22194;50.046;21.954;2022-09-09T02:39:48;47.20;;;33.80;;
36137;SDS011;22194;50.046;21.954;2022-09-09T02:42:16;50.00;;;34.20;;
36137;SDS011;22194;50.046;21.954;2022-09-09T02:44:44;46.10;;;33.30;;
36137;SDS011;22194;50.046;21.954;2022-09-09T02:53:16;47.60;;;32.40;;
36137;SDS011;22194;50.046;21.954;2022-09-09T02:56:11;47.20;;;32.70;;
36137;SDS011;22194;50.046;21.954;2022-09-09T02:58:41;48.90;;;32.60;;
36137;SDS011;22194;50.046;21.954;2022-09-09T03:01:10;47.60;;;32.10;;
36137;SDS011;22194;50.046;21.954;2022-09-09T03:03:40;46.60;;;32.20;;
36137;SDS011;22194;50.046;21.954;2022-09-09T03:06:09;50.60;;;34.40;;
36137;SDS011;22194;50.046;21.954;2022-09-09T03:08:39;47.10;;;33.10;;
36137;SDS011;22194;50.046;21.954;2022-09-09T03:11:16;47.40;;;32.70;;
36137;SDS011;22194;50.046;21.954;2022-09-09T03:13:44;49.20;;;33.40;;
36137;SDS011;22194;50.046;21.954;2022-09-09T03:16:12;48.30;;;31.50;;
36137;SDS011;22194;50.046;21.954;2022-09-09T03:18:40;48.80;;;31.20;;
36137;SDS011;22194;50.046;21.954;2022-09-09T03:21:08;46.50;;;32.30;;
36137;SDS011;22194;50.046;21.954;2022-09-09T03:23:35;44.50;;;32.30;;
36137;SDS011;22194;50.046;21.954;2022-09-09T03:26:03;48.30;;;32.30;;
36137;SDS011;22194;50.046;21.954;2022-09-09T03:28:31;50.40;;;34.10;;
36137;SDS011;22194;50.046;21.954;2022-09-09T03:31:00;49.00;;;33.20;;
36137;SDS011;22194;50.046;21.954;2022-09-09T03:33:30;48.90;;;33.00;;
36137;SDS011;22194;50.046;21.954;2022-09-09T03:35:58;46.10;;;31.00;;
36137;SDS011;22194;50.046;21.954;2022-09-09T03:38:26;47.30;;;32.80;;
36137;SDS011;22194;50.046;21.954;2022-09-09T03:40:54;47.30;;;32.60;;
36137;SDS011;22194;50.046;21.954;2022-09-09T03:43:25;45.10;;;32.10;;
36137;SDS011;22194;50.046;21.954;2022-09-09T03:45:54;45.70;;;31.70;;
36137;SDS011;22194;50.046;21.954;2022-09-09T03:48:26;46.20;;;33.00;;
36137;SDS011;22194;50.046;21.954;2022-09-09T03:50:56;47.70;;;32.70;;
36137;SDS011;22194;50.046;21.954;2022-09-09T03:53:25;47.80;;;32.10;;
36137;SDS011;22194;50.046;21.954;2022-09-09T03:55:55;44.70;;;32.30;;
36137;SDS011;22194;50.046;21.954;2022-09-09T03:58:27;44.40;;;30.70;;
36137;SDS011;22194;50.046;21.954;2022-09-09T04:00:57;45.70;;;31.10;;
36137;SDS011;22194;50.046;21.954;2022-09-09T04:03:27;46.10;;;32.10;;
36137;SDS011;22194;50.046;21.954;2022-09-09T04:05:57;45.20;;;31.50;;
36137;SDS011;22194;50.046;21.954;2022-09-09T04:08:28;43.70;;;30.90;;
36137;SDS011;22194;50.046;21.954;2022-09-09T04:10:59;44.80;;;31.20;;
36137;SDS011;22194;50.046;21.954;2022-09-09T04:13:29;45.60;;;30.70;;
36137;SDS011;22194;50.046;21.954;2022-09-09T04:15:58;45.60;;;32.10;;
36137;SDS011;22194;50.046;21.954;2022-09-09T04:18:27;45.30;;;31.40;;
36137;SDS011;22194;50.046;21.954;2022-09-09T04:20:56;44.00;;;30.40;;
36137;SDS011;22194;50.046;21.954;2022-09-09T04:23:26;44.70;;;30.90;;
36137;SDS011;22194;50.046;21.954;2022-09-09T04:25:57;44.40;;;30.60;;
36137;SDS011;22194;50.046;21.954;2022-09-09T04:28:28;43.70;;;29.70;;
36137;SDS011;22194;50.046;21.954;2022-09-09T04:31:14;44.50;;;30.90;;
36137;SDS011;22194;50.046;21.954;2022-09-09T04:33:45;42.60;;;31.60;;
36137;SDS011;22194;50.046;21.954;2022-09-09T04:36:14;41.90;;;30.10;;
36137;SDS011;22194;50.046;21.954;2022-09-09T04:38:42;44.40;;;30.20;;
36137;SDS011;22194;50.046;21.954;2022-09-09T04:41:11;42.60;;;29.30;;
36137;SDS011;22194;50.046;21.954;2022-09-09T04:43:40;43.50;;;29.20;;
36137;SDS011;22194;50.046;21.954;2022-09-09T04:46:08;39.40;;;28.40;;
36137;SDS011;22194;50.046;21.954;2022-09-09T04:48:36;42.10;;;29.60;;
36137;SDS011;22194;50.046;21.954;2022-09-09T04:51:05;41.20;;;29.60;;
36137;SDS011;22194;50.046;21.954;2022-09-09T04:53:34;42.40;;;29.70;;
36137;SDS011;22194;50.046;21.954;2022-09-09T04:56:04;41.70;;;29.10;;
36137;SDS011;22194;50.046;21.954;2022-09-09T04:58:34;45.60;;;29.40;;
36137;SDS011;22194;50.046;21.954;2022-09-09T05:01:16;40.30;;;28.90;;
36137;SDS011;22194;50.046;21.954;2022-09-09T05:03:52;43.20;;;29.00;;
36137;SDS011;22194;50.046;21.954;2022-09-09T05:06:23;39.10;;;28.50;;
36137;SDS011;22194;50.046;21.954;2022-09-09T05:08:52;40.60;;;29.00;;
36137;SDS011;22194;50.046;21.954;2022-09-09T05:11:21;44.30;;;30.40;;
36137;SDS011;22194;50.046;21.954;2022-09-09T05:13:54;43.20;;;30.90;;
36137;SDS011;22194;50.046;21.954;2022-09-09T05:16:23;40.20;;;28.00;;
36137;SDS011;22194;50.046;21.954;2022-09-09T05:18:54;45.10;;;29.10;;
36137;SDS011;22194;50.046;21.954;2022-09-09T05:21:23;41.60;;;29.10;;
36137;SDS011;22194;50.046;21.954;2022-09-09T05:23:55;40.70;;;27.30;;
36137;SDS011;22194;50.046;21.954;2022-09-09T05:26:23;42.50;;;29.20;;
36137;SDS011;22194;50.046;21.954;2022-09-09T05:28:54;43.10;;;28.50;;
36137;SDS011;22194;50.046;21.954;2022-09-09T05:31:25;41.80;;;29.60;;
36137;SDS011;22194;50.046;21.954;2022-09-09T05:33:57;43.90;;;29.70;;
36137;SDS011;22194;50.046;21.954;2022-09-09T05:36:26;40.40;;;28.60;;
36137;SDS011;22194;50.046;21.954;2022-09-09T05:38:55;40.40;;;27.60;;
36137;SDS011;22194;50.046;21.954;2022-09-09T05:41:24;38.70;;;27.60;;
36137;SDS011;22194;50.046;21.954;2022-09-09T05:43:52;39.20;;;28.60;;
36137;SDS011;22194;50.046;21.954;2022-09-09T05:46:23;45.80;;;29.30;;
36137;SDS011;22194;50.046;21.954;2022-09-09T05:48:53;38.70;;;29.50;;
36137;SDS011;22194;50.046;21.954;2022-09-09T05:51:23;39.50;;;27.90;;
36137;SDS011;22194;50.046;21.954;2022-09-09T05:53:54;37.80;;;27.70;;
36137;SDS011;22194;50.046;21.954;2022-09-09T05:56:29;35.10;;;26.20;;
36137;SDS011;22194;50.046;21.954;2022-09-09T05:59:00;34.50;;;25.70;;
36137;SDS011;22194;50.046;21.954;2022-09-09T06:01:32;36.90;;;26.20;;
36137;SDS011;22194;50.046;21.954;2022-09-09T06:04:04;34.60;;;25.50;;
36137;SDS011;22194;50.046;21.954;2022-09-09T06:06:34;34.30;;;25.40;;
36137;SDS011;22194;50.046;21.954;2022-09-09T06:09:08;37.10;;;26.10;;
36137;SDS011;22194;50.046;21.954;2022-09-09T06:11:39;32.40;;;23.70;;
36137;SDS011;22194;50.046;21.954;2022-09-09T06:14:10;32.60;;;23.60;;
36137;SDS011;22194;50.046;21.954;2022-09-09T06:16:38;30.40;;;20.10;;
36137;SDS011;22194;50.046;21.954;2022-09-09T06:19:07;28.90;;;21.10;;
36137;SDS011;22194;50.046;21.954;2022-09-09T06:21:35;28.40;;;20.50;;
36137;SDS011;22194;50.046;21.954;2022-09-09T06:24:08;29.60;;;20.50;;
36137;SDS011;22194;50.046;21.954;2022-09-09T06:26:41;46.50;;;19.20;;
36137;SDS011;22194;50.046;21.954;2022-09-09T06:29:12;27.50;;;18.90;;
36137;SDS011;22194;50.046;21.954;2022-09-09T06:31:40;27.70;;;19.10;;
36137;SDS011;22194;50.046;21.954;2022-09-09T06:34:12;27.40;;;18.70;;
36137;SDS011;22194;50.046;21.954;2022-09-09T06:36:43;27.00;;;18.80;;
36137;SDS011;22194;50.046;21.954;2022-09-09T06:39:17;26.90;;;17.30;;
36137;SDS011;22194;50.046;21.954;2022-09-09T06:41:48;26.70;;;17.30;;
36137;SDS011;22194;50.046;21.954;2022-09-09T06:44:20;26.40;;;17.50;;
36137;SDS011;22194;50.046;21.954;2022-09-09T06:46:48;24.30;;;15.70;;
36137;SDS011;22194;50.046;21.954;2022-09-09T06:49:17;24.70;;;16.00;;
36137;SDS011;22194;50.046;21.954;2022-09-09T06:51:49;22.90;;;14.40;;
36137;SDS011;22194;50.046;21.954;2022-09-09T06:54:20;23.80;;;14.50;;
36137;SDS011;22194;50.046;21.954;2022-09-09T06:56:53;23.50;;;14.30;;
36137;SDS011;22194;50.046;21.954;2022-09-09T06:59:22;21.30;;;12.80;;
36137;SDS011;22194;50.046;21.954;2022-09-09T07:01:51;22.40;;;15.00;;
36137;SDS011;22194;50.046;21.954;2022-09-09T07:04:24;21.10;;;13.20;;
36137;SDS011;22194;50.046;21.954;2022-09-09T07:06:54;20.80;;;13.00;;
36137;SDS011;22194;50.046;21.954;2022-09-09T07:09:24;21.90;;;12.90;;
36137;SDS011;22194;50.046;21.954;2022-09-09T07:11:54;23.00;;;13.20;;
36137;SDS011;22194;50.046;21.954;2022-09-09T07:14:25;19.80;;;12.70;;
36137;SDS011;22194;50.046;21.954;2022-09-09T07:16:57;23.00;;;13.70;;
36137;SDS011;22194;50.046;21.954;2022-09-09T07:19:29;20.60;;;12.70;;
36137;SDS011;22194;50.046;21.954;2022-09-09T07:21:57;22.00;;;13.30;;
36137;SDS011;22194;50.046;21.954;2022-09-09T07:24:27;20.60;;;12.80;;
36137;SDS011;22194;50.046;21.954;2022-09-09T07:27:00;20.20;;;10.70;;
36137;SDS011;22194;50.046;21.954;2022-09-09T07:29:28;21.00;;;13.10;;
36137;SDS011;22194;50.046;21.954;2022-09-09T07:31:59;20.30;;;13.00;;
36137;SDS011;22194;50.046;21.954;2022-09-09T07:34:27;21.10;;;11.80;;
36137;SDS011;22194;50.046;21.954;2022-09-09T07:36:55;23.10;;;12.80;;
36137;SDS011;22194;50.046;21.954;2022-09-09T07:39:28;21.90;;;11.90;;
36137;SDS011;22194;50.046;21.954;2022-09-09T07:41:59;22.80;;;13.10;;
36137;SDS011;22194;50.046;21.954;2022-09-09T07:44:27;19.50;;;11.30;;
36137;SDS011;22194;50.046;21.954;2022-09-09T07:46:59;19.10;;;10.30;;
36137;SDS011;22194;50.046;21.954;2022-09-09T07:49:29;16.70;;;9.70;;
36137;SDS011;22194;50.046;21.954;2022-09-09T07:52:02;17.50;;;9.60;;
36137;SDS011;22194;50.046;21.954;2022-09-09T07:54:33;17.30;;;9.30;;
36137;SDS011;22194;50.046;21.954;2022-09-09T07:57:04;21.70;;;8.80;;
36137;SDS011;22194;50.046;21.954;2022-09-09T07:59:32;12.30;;;7.70;;
36137;SDS011;22194;50.046;21.954;2022-09-09T08:02:04;13.60;;;7.10;;
36137;SDS011;22194;50.046;21.954;2022-09-09T08:04:36;16.50;;;7.90;;
36137;SDS011;22194;50.046;21.954;2022-09-09T08:07:06;13.00;;;6.10;;
36137;SDS011;22194;50.046;21.954;2022-09-09T08:09:34;14.30;;;7.60;;
36137;SDS011;22194;50.046;21.954;2022-09-09T08:12:02;14.40;;;7.30;;
36137;SDS011;22194;50.046;21.954;2022-09-09T08:14:32;12.40;;;7.10;;
36137;SDS011;22194;50.046;21.954;2022-09-09T08:17:00;11.80;;;6.70;;
36137;SDS011;22194;50.046;21.954;2022-09-09T08:19:30;11.50;;;6.80;;
36137;SDS011;22194;50.046;21.954;2022-09-09T08:22:03;15.10;;;7.10;;
36137;SDS011;22194;50.046;21.954;2022-09-09T08:24:33;11.80;;;6.90;;
36137;SDS011;22194;50.046;21.954;2022-09-09T08:27:03;11.30;;;6.40;;
36137;SDS011;22194;50.046;21.954;2022-09-09T08:29:30;15.10;;;7.20;;
36137;SDS011;22194;50.046;21.954;2022-09-09T08:31:58;13.60;;;7.10;;
36137;SDS011;22194;50.046;21.954;2022-09-09T08:34:30;14.70;;;6.70;;
36137;SDS011;22194;50.046;21.954;2022-09-09T08:37:02;12.50;;;6.40;;
36137;SDS011;22194;50.046;21.954;2022-09-09T08:39:32;10.80;;;6.70;;
36137;SDS011;22194;50.046;21.954;2022-09-09T08:44:49;9.90;;;6.00;;
36137;SDS011;22194;50.046;21.954;2022-09-09T08:50:29;10.20;;;5.80;;
36137;SDS011;22194;50.046;21.954;2022-09-09T08:53:26;9.90;;;5.40;;
36137;SDS011;22194;50.046;21.954;2022-09-09T08:56:09;10.90;;;5.50;;
36137;SDS011;22194;50.046;21.954;2022-09-09T08:58:49;9.50;;;5.50;;
36137;SDS011;22194;50.046;21.954;2022-09-09T09:06:35;7.90;;;4.60;;
36137;SDS011;22194;50.046;21.954;2022-09-09T09:12:10;11.60;;;5.50;;
36137;SDS011;22194;50.046;21.954;2022-09-09T09:14:43;8.90;;;5.10;;
36137;SDS011;22194;50.046;21.954;2022-09-09T09:17:18;7.80;;;4.70;;
36137;SDS011;22194;50.046;21.954;2022-09-09T09:19:52;17.00;;;9.40;;
36137;SDS011;22194;50.046;21.954;2022-09-09T09:22:39;11.80;;;7.00;;
36137;SDS011;22194;50.046;21.954;2022-09-09T09:25:21;7.50;;;4.80;;
36137;SDS011;22194;50.046;21.954;2022-09-09T09:28:13;8.70;;;5.30;;
36137;SDS011;22194;50.046;21.954;2022-09-09T09:31:12;10.80;;;5.40;;
36137;SDS011;22194;50.046;21.954;2022-09-09T09:33:50;9.50;;;5.20;;
36137;SDS011;22194;50.046;21.954;2022-09-09T09:36:24;8.90;;;4.50;;
36137;SDS011;22194;50.046;21.954;2022-09-09T09:39:05;7.50;;;3.90;;
36137;SDS011;22194;50.046;21.954;2022-09-09T09:41:53;6.40;;;3.60;;
36137;SDS011;22194;50.046;21.954;2022-09-09T09:44:26;7.00;;;4.10;;
36137;SDS011;22194;50.046;21.954;2022-09-09T09:47:08;6.50;;;3.70;;
36137;SDS011;22194;50.046;21.954;2022-09-09T09:49:52;7.90;;;4.00;;
36137;SDS011;22194;50.046;21.954;2022-09-09T09:52:24;5.60;;;3.80;;
36137;SDS011;22194;50.046;21.954;2022-09-09T09:54:57;4.90;;;3.90;;
36137;SDS011;22194;50.046;21.954;2022-09-09T09:57:37;7.00;;;4.20;;
36137;SDS011;22194;50.046;21.954;2022-09-09T10:00:13;7.20;;;4.50;;
36137;SDS011;22194;50.046;21.954;2022-09-09T10:02:46;8.70;;;4.50;;
36137;SDS011;22194;50.046;21.954;2022-09-09T10:05:20;7.60;;;4.10;;
36137;SDS011;22194;50.046;21.954;2022-09-09T10:08:10;8.60;;;4.50;;
36137;SDS011;22194;50.046;21.954;2022-09-09T10:16:56;5.70;;;4.30;;
36137;SDS011;22194;50.046;21.954;2022-09-09T10:19:37;8.10;;;4.50;;
36137;SDS011;22194;50.046;21.954;2022-09-09T10:22:31;8.90;;;4.20;;
36137;SDS011;22194;50.046;21.954;2022-09-09T10:27:51;8.10;;;4.40;;
36137;SDS011;22194;50.046;21.954;2022-09-09T10:33:59;7.10;;;4.30;;
36137;SDS011;22194;50.046;21.954;2022-09-09T10:36:33;6.00;;;4.20;;
36137;SDS011;22194;50.046;21.954;2022-09-09T10:44:40;6.90;;;4.10;;
36137;SDS011;22194;50.046;21.954;2022-09-09T10:47:31;9.00;;;5.20;;
36137;SDS011;22194;50.046;21.954;2022-09-09T10:53:39;7.00;;;5.00;;
36137;SDS011;22194;50.046;21.954;2022-09-09T10:56:21;9.00;;;5.10;;
36137;SDS011;22194;50.046;21.954;2022-09-09T10:59:16;6.60;;;4.60;;
36137;SDS011;22194;50.046;21.954;2022-09-09T11:02:01;11.20;;;4.80;;
36137;SDS011;22194;50.046;21.954;2022-09-09T11:07:13;18.80;;;10.70;;
36137;SDS011;22194;50.046;21.954;2022-09-09T11:09:58;9.70;;;5.80;;
36137;SDS011;22194;50.046;21.954;2022-09-09T11:12:34;10.30;;;5.20;;
36137;SDS011;22194;50.046;21.954;2022-09-09T11:15:20;9.50;;;5.20;;
36137;SDS011;22194;50.046;21.954;2022-09-09T11:18:01;8.40;;;5.10;;
36137;SDS011;22194;50.046;21.954;2022-09-09T11:20:42;9.40;;;4.80;;
36137;SDS011;22194;50.046;21.954;2022-09-09T11:23:17;8.20;;;4.90;;
36137;SDS011;22194;50.046;21.954;2022-09-09T11:25:58;7.90;;;5.10;;
36137;SDS011;22194;50.046;21.954;2022-09-09T11:28:58;8.70;;;5.10;;
36137;SDS011;22194;50.046;21.954;2022-09-09T11:34:40;9.20;;;4.50;;
36137;SDS011;22194;50.046;21.954;2022-09-09T11:40:19;7.00;;;4.50;;
36137;SDS011;22194;50.046;21.954;2022-09-09T11:45:53;8.60;;;4.80;;
36137;SDS011;22194;50.046;21.954;2022-09-09T11:48:32;5.70;;;4.40;;
36137;SDS011;22194;50.046;21.954;2022-09-09T11:51:11;7.90;;;4.70;;
36137;SDS011;22194;50.046;21.954;2022-09-09T11:53:56;7.20;;;4.50;;
36137;SDS011;22194;50.046;21.954;2022-09-09T11:56:45;9.50;;;4.50;;
36137;SDS011;22194;50.046;21.954;2022-09-09T11:59:26;6.80;;;4.10;;
36137;SDS011;22194;50.046;21.954;2022-09-09T12:04:35;7.60;;;4.70;;
36137;SDS011;22194;50.046;21.954;2022-09-09T12:07:23;11.20;;;4.90;;
36137;SDS011;22194;50.046;21.954;2022-09-09T12:13:16;9.50;;;5.00;;
36137;SDS011;22194;50.046;21.954;2022-09-09T12:15:52;8.60;;;5.30;;
36137;SDS011;22194;50.046;21.954;2022-09-09T12:18:31;12.70;;;5.10;;
36137;SDS011;22194;50.046;21.954;2022-09-09T12:23:57;8.20;;;4.40;;
36137;SDS011;22194;50.046;21.954;2022-09-09T12:26:34;9.30;;;4.40;;
36137;SDS011;22194;50.046;21.954;2022-09-09T12:29:14;9.00;;;4.50;;
36137;SDS011;22194;50.046;21.954;2022-09-09T12:32:00;10.00;;;4.80;;
36137;SDS011;22194;50.046;21.954;2022-09-09T12:34:38;10.80;;;5.00;;
36137;SDS011;22194;50.046;21.954;2022-09-09T12:40:32;6.50;;;4.30;;
36137;SDS011;22194;50.046;21.954;2022-09-09T12:43:20;8.70;;;5.00;;
36137;SDS011;22194;50.046;21.954;2022-09-09T12:45:53;8.60;;;4.20;;
36137;SDS011;22194;50.046;21.954;2022-09-09T12:48:30;11.60;;;5.20;;
36137;SDS011;22194;50.046;21.954;2022-09-09T12:51:05;9.40;;;4.40;;
36137;SDS011;22194;50.046;21.954;2022-09-09T12:53:55;7.30;;;4.40;;
36137;SDS011;22194;50.046;21.954;2022-09-09T12:56:28;7.00;;;4.10;;
36137;SDS011;22194;50.046;21.954;2022-09-09T12:59:01;6.50;;;4.40;;
36137;SDS011;22194;50.046;21.954;2022-09-09T13:01:32;6.90;;;4.40;;
36137;SDS011;22194;50.046;21.954;2022-09-09T13:04:15;5.70;;;4.10;;
36137;SDS011;22194;50.046;21.954;2022-09-09T13:06:50;6.20;;;4.10;;
36137;SDS011;22194;50.046;21.954;2022-09-09T13:09:22;9.30;;;4.60;;
36137;SDS011;22194;50.046;21.954;2022-09-09T13:11:53;8.10;;;4.20;;
36137;SDS011;22194;50.046;21.954;2022-09-09T13:14:28;6.70;;;4.10;;
36137;SDS011;22194;50.046;21.954;2022-09-09T13:17:16;7.60;;;4.60;;
36137;SDS011;22194;50.046;21.954;2022-09-09T13:19:47;5.50;;;4.00;;
36137;SDS011;22194;50.046;21.954;2022-09-09T13:22:23;5.80;;;4.10;;
36137;SDS011;22194;50.046;21.954;2022-09-09T13:25:17;5.20;;;4.20;;
36137;SDS011;22194;50.046;21.954;2022-09-09T13:28:00;8.70;;;4.30;;
36137;SDS011;22194;50.046;21.954;2022-09-09T13:30:33;7.20;;;4.20;;
36137;SDS011;22194;50.046;21.954;2022-09-09T13:35:45;9.90;;;4.30;;
36137;SDS011;22194;50.046;21.954;2022-09-09T13:38:15;9.80;;;4.30;;
36137;SDS011;22194;50.046;21.954;2022-09-09T13:40:55;14.30;;;4.80;;
36137;SDS011;22194;50.046;21.954;2022-09-09T13:43:41;6.90;;;4.30;;
36137;SDS011;22194;50.046;21.954;2022-09-09T13:46:23;8.90;;;4.10;;
36137;SDS011;22194;50.046;21.954;2022-09-09T13:48:59;9.40;;;4.30;;
36137;SDS011;22194;50.046;21.954;2022-09-09T13:51:41;7.30;;;4.30;;
36137;SDS011;22194;50.046;21.954;2022-09-09T13:54:15;14.10;;;4.50;;
36137;SDS011;22194;50.046;21.954;2022-09-09T13:56:47;6.80;;;3.90;;
36137;SDS011;22194;50.046;21.954;2022-09-09T13:59:19;7.90;;;3.90;;
36137;SDS011;22194;50.046;21.954;2022-09-09T14:01:49;7.60;;;4.10;;
36137;SDS011;22194;50.046;21.954;2022-09-09T14:04:20;10.20;;;4.20;;
36137;SDS011;22194;50.046;21.954;2022-09-09T14:06:52;7.30;;;4.00;;
36137;SDS011;22194;50.046;21.954;2022-09-09T14:09:23;5.80;;;4.00;;
36137;SDS011;22194;50.046;21.954;2022-09-09T14:11:51;6.70;;;3.90;;
36137;SDS011;22194;50.046;21.954;2022-09-09T14:14:22;8.90;;;3.80;;
36137;SDS011;22194;50.046;21.954;2022-09-09T14:16:53;8.80;;;4.10;;
36137;SDS011;22194;50.046;21.954;2022-09-09T14:19:24;7.00;;;4.20;;
36137;SDS011;22194;50.046;21.954;2022-09-09T14:21:52;10.60;;;3.80;;
36137;SDS011;22194;50.046;21.954;2022-09-09T14:24:20;6.30;;;3.80;;
36137;SDS011;22194;50.046;21.954;2022-09-09T14:26:48;8.60;;;4.10;;
36137;SDS011;22194;50.046;21.954;2022-09-09T14:29:19;7.30;;;4.20;;
36137;SDS011;22194;50.046;21.954;2022-09-09T14:31:52;7.90;;;4.00;;
36137;SDS011;22194;50.046;21.954;2022-09-09T14:34:20;9.60;;;4.20;;
36137;SDS011;22194;50.046;21.954;2022-09-09T14:36:48;12.00;;;4.60;;
36137;SDS011;22194;50.046;21.954;2022-09-09T14:39:16;7.70;;;4.10;;
36137;SDS011;22194;50.046;21.954;2022-09-09T14:41:47;8.30;;;4.00;;
36137;SDS011;22194;50.046;21.954;2022-09-09T14:44:17;10.50;;;4.50;;
36137;SDS011;22194;50.046;21.954;2022-09-09T14:46:47;6.50;;;4.00;;
36137;SDS011;22194;50.046;21.954;2022-09-09T14:49:20;7.50;;;4.10;;
36137;SDS011;22194;50.046;21.954;2022-09-09T14:51:52;10.60;;;4.60;;
36137;SDS011;22194;50.046;21.954;2022-09-09T14:54:20;6.40;;;4.30;;
36137;SDS011;22194;50.046;21.954;2022-09-09T14:56:53;7.40;;;4.10;;
36137;SDS011;22194;50.046;21.954;2022-09-09T14:59:25;8.80;;;4.50;;
36137;SDS011;22194;50.046;21.954;2022-09-09T15:01:56;8.00;;;3.90;;
36137;SDS011;22194;50.046;21.954;2022-09-09T15:04:27;8.60;;;4.30;;
36137;SDS011;22194;50.046;21.954;2022-09-09T15:06:57;8.80;;;4.50;;
36137;SDS011;22194;50.046;21.954;2022-09-09T15:09:27;9.40;;;4.70;;
36137;SDS011;22194;50.046;21.954;2022-09-09T15:11:58;6.70;;;4.20;;
36137;SDS011;22194;50.046;21.954;2022-09-09T15:14:27;12.10;;;5.10;;
36137;SDS011;22194;50.046;21.954;2022-09-09T15:16:58;8.20;;;4.30;;
36137;SDS011;22194;50.046;21.954;2022-09-09T15:19:26;8.20;;;4.70;;
36137;SDS011;22194;50.046;21.954;2022-09-09T15:21:57;9.80;;;4.30;;
36137;SDS011;22194;50.046;21.954;2022-09-09T15:24:27;8.10;;;4.20;;
36137;SDS011;22194;50.046;21.954;2022-09-09T15:26:55;10.10;;;4.90;;
36137;SDS011;22194;50.046;21.954;2022-09-09T15:29:27;10.70;;;4.40;;
36137;SDS011;22194;50.046;21.954;2022-09-09T15:31:58;9.60;;;4.50;;
36137;SDS011;22194;50.046;21.954;2022-09-09T15:34:28;9.60;;;4.40;;
36137;SDS011;22194;50.046;21.954;2022-09-09T15:36:56;16.90;;;8.80;;
36137;SDS011;22194;50.046;21.954;2022-09-09T15:39:27;21.70;;;11.00;;
36137;SDS011;22194;50.046;21.954;2022-09-09T15:42:08;22.50;;;12.70;;
36137;SDS011;22194;50.046;21.954;2022-09-09T15:44:42;21.90;;;12.50;;
36137;SDS011;22194;50.046;21.954;2022-09-09T15:47:14;22.20;;;13.00;;
36137;SDS011;22194;50.046;21.954;2022-09-09T15:49:45;23.50;;;12.50;;
36137;SDS011;22194;50.046;21.954;2022-09-09T15:52:13;24.90;;;12.50;;
36137;SDS011;22194;50.046;21.954;2022-09-09T15:54:45;25.20;;;14.20;;
36137;SDS011;22194;50.046;21.954;2022-09-09T15:57:16;23.10;;;13.30;;
36137;SDS011;22194;50.046;21.954;2022-09-09T15:59:46;21.90;;;13.30;;
36137;SDS011;22194;50.046;21.954;2022-09-09T16:02:17;24.00;;;12.10;;
36137;SDS011;22194;50.046;21.954;2022-09-09T16:04:49;21.40;;;12.50;;
36137;SDS011;22194;50.046;21.954;2022-09-09T16:07:16;23.60;;;12.80;;
36137;SDS011;22194;50.046;21.954;2022-09-09T16:09:48;23.30;;;13.50;;
36137;SDS011;22194;50.046;21.954;2022-09-09T16:12:20;22.60;;;13.20;;
36137;SDS011;22194;50.046;21.954;2022-09-09T16:14:52;23.60;;;14.30;;
36137;SDS011;22194;50.046;21.954;2022-09-09T16:17:21;25.80;;;13.10;;
36137;SDS011;22194;50.046;21.954;2022-09-09T16:19:53;23.90;;;14.30;;
36137;SDS011;22194;50.046;21.954;2022-09-09T16:22:25;25.50;;;14.70;;
36137;SDS011;22194;50.046;21.954;2022-09-09T16:24:54;23.90;;;14.70;;
36137;SDS011;22194;50.046;21.954;2022-09-09T16:27:23;28.40;;;15.80;;
36137;SDS011;22194;50.046;21.954;2022-09-09T16:29:50;24.60;;;14.60;;
36137;SDS011;22194;50.046;21.954;2022-09-09T16:32:20;27.50;;;15.40;;
36137;SDS011;22194;50.046;21.954;2022-09-09T16:34:51;23.40;;;14.80;;
36137;SDS011;22194;50.046;21.954;2022-09-09T16:37:19;23.70;;;14.20;;
36137;SDS011;22194;50.046;21.954;2022-09-09T16:39:47;26.10;;;16.00;;
36137;SDS011;22194;50.046;21.954;2022-09-09T16:42:17;25.50;;;14.90;;